sensor_id;sensor_type;location;lat;lon;timestamp;pressure;altitude;pressure_sealevel;temperature;humidity
7774;BME280;3931;42.260;23.116;2023-02-20T00:00:42;95871.38;;;16.00;48.05
7774;BME280;3931;42.260;23.116;2023-02-20T00:03:09;95872.75;;;15.78;48.64
7774;BME280;3931;42.260;23.116;2023-02-20T00:05:35;95878.75;;;15.67;48.93
7774;BME280;3931;42.260;23.116;2023-02-20T00:08:01;95874.91;;;15.83;48.63
7774;BME280;3931;42.260;23.116;2023-02-20T00:10:28;95875.78;;;15.62;48.99
7774;BME280;3931;42.260;23.116;2023-02-20T00:12:54;95869.19;;;15.77;49.77
7774;BME280;3931;42.260;23.116;2023-02-20T00:15:20;95867.53;;;15.49;50.35
7774;BME280;3931;42.260;23.116;2023-02-20T00:17:47;95855.41;;;15.92;49.79
7774;BME280;3931;42.260;23.116;2023-02-20T00:20:14;95869.38;;;16.10;49.25
7774;BME280;3931;42.260;23.116;2023-02-20T00:22:41;95871.97;;;15.77;50.40
7774;BME280;3931;42.260;23.116;2023-02-20T00:25:07;95880.66;;;15.79;50.57
7774;BME280;3931;42.260;23.116;2023-02-20T00:27:33;95870.63;;;16.09;50.09
7774;BME280;3931;42.260;23.116;2023-02-20T00:29:59;95872.84;;;15.65;51.16
7774;BME280;3931;42.260;23.116;2023-02-20T00:32:25;95883.66;;;16.12;50.76
7774;BME280;3931;42.260;23.116;2023-02-20T00:34:52;95879.66;;;16.31;50.52
7774;BME280;3931;42.260;23.116;2023-02-20T00:37:18;95880.72;;;16.43;50.86
7774;BME280;3931;42.260;23.116;2023-02-20T00:39:44;95879.22;;;16.60;50.36
7774;BME280;3931;42.260;23.116;2023-02-20T00:42:10;95887.03;;;16.07;50.93
7774;BME280;3931;42.260;23.116;2023-02-20T00:44:37;95879.59;;;15.86;51.08
7774;BME280;3931;42.260;23.116;2023-02-20T00:47:03;95893.53;;;15.15;52.07
7774;BME280;3931;42.260;23.116;2023-02-20T00:49:29;95880.94;;;14.80;53.13
7774;BME280;3931;42.260;23.116;2023-02-20T00:51:55;95886.56;;;15.11;52.11
7774;BME280;3931;42.260;23.116;2023-02-20T00:54:21;95887.69;;;15.53;51.84
7774;BME280;3931;42.260;23.116;2023-02-20T00:56:48;95876.25;;;15.29;52.00
7774;BME280;3931;42.260;23.116;2023-02-20T00:59:14;95874.41;;;15.35;51.65
7774;BME280;3931;42.260;23.116;2023-02-20T01:01:40;95876.56;;;15.31;51.94
7774;BME280;3931;42.260;23.116;2023-02-20T01:04:06;95889.47;;;15.07;53.27
7774;BME280;3931;42.260;23.116;2023-02-20T01:06:32;95886.88;;;14.91;53.34
7774;BME280;3931;42.260;23.116;2023-02-20T01:08:58;95881.13;;;14.64;54.94
7774;BME280;3931;42.260;23.116;2023-02-20T01:11:24;95859.84;;;15.31;53.22
7774;BME280;3931;42.260;23.116;2023-02-20T01:13:51;95852.16;;;16.12;51.54
7774;BME280;3931;42.260;23.116;2023-02-20T01:16:17;95854.66;;;16.46;49.95
7774;BME280;3931;42.260;23.116;2023-02-20T01:18:43;95836.19;;;16.48;49.72
7774;BME280;3931;42.260;23.116;2023-02-20T01:21:09;95839.31;;;16.68;49.17
7774;BME280;3931;42.260;23.116;2023-02-20T01:23:35;95845.22;;;16.52;49.28
7774;BME280;3931;42.260;23.116;2023-02-20T01:26:01;95842.72;;;16.54;49.70
7774;BME280;3931;42.260;23.116;2023-02-20T01:28:28;95852.16;;;15.93;50.71
7774;BME280;3931;42.260;23.116;2023-02-20T01:30:54;95863.91;;;14.56;53.13
7774;BME280;3931;42.260;23.116;2023-02-20T01:33:20;95873.00;;;14.48;54.76
7774;BME280;3931;42.260;23.116;2023-02-20T01:35:46;95884.88;;;14.14;56.14
7774;BME280;3931;42.260;23.116;2023-02-20T01:38:12;95885.38;;;14.00;56.71
7774;BME280;3931;42.260;23.116;2023-02-20T01:40:45;95880.41;;;14.51;56.45
7774;BME280;3931;42.260;23.116;2023-02-20T01:43:11;95888.91;;;14.47;56.16
7774;BME280;3931;42.260;23.116;2023-02-20T01:45:38;95890.53;;;14.79;54.44
7774;BME280;3931;42.260;23.116;2023-02-20T01:48:05;95894.09;;;14.80;54.90
7774;BME280;3931;42.260;23.116;2023-02-20T01:50:38;95910.88;;;13.99;57.11
7774;BME280;3931;42.260;23.116;2023-02-20T01:53:10;95910.22;;;13.82;57.52
7774;BME280;3931;42.260;23.116;2023-02-20T01:55:39;95902.38;;;14.02;57.70
7774;BME280;3931;42.260;23.116;2023-02-20T01:58:09;95890.72;;;14.63;56.14
7774;BME280;3931;42.260;23.116;2023-02-20T02:00:37;95885.44;;;15.08;53.73
7774;BME280;3931;42.260;23.116;2023-02-20T02:03:05;95891.03;;;14.43;56.59
7774;BME280;3931;42.260;23.116;2023-02-20T02:05:32;95897.41;;;14.44;56.68
7774;BME280;3931;42.260;23.116;2023-02-20T02:07:59;95901.03;;;14.07;58.92
7774;BME280;3931;42.260;23.116;2023-02-20T02:10:33;95903.88;;;14.28;58.19
7774;BME280;3931;42.260;23.116;2023-02-20T02:13:01;95903.38;;;14.55;56.81
7774;BME280;3931;42.260;23.116;2023-02-20T02:15:27;95905.00;;;14.18;58.46
7774;BME280;3931;42.260;23.116;2023-02-20T02:18:18;95909.75;;;14.65;56.36
7774;BME280;3931;42.260;23.116;2023-02-20T02:24:22;95908.09;;;14.67;56.42
7774;BME280;3931;42.260;23.116;2023-02-20T02:33:33;95901.25;;;15.11;54.14
7774;BME280;3931;42.260;23.116;2023-02-20T02:36:30;95918.22;;;15.26;55.08
7774;BME280;3931;42.260;23.116;2023-02-20T02:39:04;95925.59;;;14.33;56.13
7774;BME280;3931;42.260;23.116;2023-02-20T02:41:43;95943.16;;;13.83;58.72
7774;BME280;3931;42.260;23.116;2023-02-20T02:44:15;95968.38;;;12.97;65.83
7774;BME280;3931;42.260;23.116;2023-02-20T02:46:47;95970.19;;;13.58;66.22
7774;BME280;3931;42.260;23.116;2023-02-20T02:49:19;95979.41;;;13.30;68.50
7774;BME280;3931;42.260;23.116;2023-02-20T02:51:47;96007.59;;;12.42;75.39
7774;BME280;3931;42.260;23.116;2023-02-20T02:54:17;96005.78;;;12.80;75.58
7774;BME280;3931;42.260;23.116;2023-02-20T02:56:46;95997.28;;;13.00;72.72
7774;BME280;3931;42.260;23.116;2023-02-20T02:59:15;95999.88;;;12.78;74.24
7774;BME280;3931;42.260;23.116;2023-02-20T03:01:47;96003.97;;;13.02;72.51
7774;BME280;3931;42.260;23.116;2023-02-20T03:04:15;96000.59;;;12.95;72.66
7774;BME280;3931;42.260;23.116;2023-02-20T03:06:50;96002.53;;;13.52;72.82
7774;BME280;3931;42.260;23.116;2023-02-20T03:09:20;95995.41;;;13.38;73.12
7774;BME280;3931;42.260;23.116;2023-02-20T03:11:50;96004.44;;;13.80;72.91
7774;BME280;3931;42.260;23.116;2023-02-20T03:14:20;95993.22;;;13.58;73.81
7774;BME280;3931;42.260;23.116;2023-02-20T03:17:11;95991.31;;;13.55;75.73
7774;BME280;3931;42.260;23.116;2023-02-20T03:19:40;95998.84;;;13.30;78.57
7774;BME280;3931;42.260;23.116;2023-02-20T03:22:12;95996.31;;;13.48;77.60
7774;BME280;3931;42.260;23.116;2023-02-20T03:24:42;96009.22;;;13.67;78.04
7774;BME280;3931;42.260;23.116;2023-02-20T03:27:22;96015.34;;;14.00;78.07
7774;BME280;3931;42.260;23.116;2023-02-20T03:29:52;96016.13;;;14.00;77.65
7774;BME280;3931;42.260;23.116;2023-02-20T03:32:23;96018.59;;;14.57;74.84
7774;BME280;3931;42.260;23.116;2023-02-20T03:35:10;96028.78;;;14.14;78.54
7774;BME280;3931;42.260;23.116;2023-02-20T03:37:56;96038.91;;;14.20;77.72
7774;BME280;3931;42.260;23.116;2023-02-20T03:40:43;96016.00;;;14.41;77.98
7774;BME280;3931;42.260;23.116;2023-02-20T03:43:28;96019.72;;;14.60;75.16
7774;BME280;3931;42.260;23.116;2023-02-20T03:45:59;96003.38;;;14.49;76.97
7774;BME280;3931;42.260;23.116;2023-02-20T03:48:29;96016.91;;;14.73;75.29
7774;BME280;3931;42.260;23.116;2023-02-20T03:50:57;96013.03;;;14.92;73.01
7774;BME280;3931;42.260;23.116;2023-02-20T03:53:24;96009.13;;;14.89;72.34
7774;BME280;3931;42.260;23.116;2023-02-20T03:55:51;96023.78;;;14.09;75.78
7774;BME280;3931;42.260;23.116;2023-02-20T03:58:22;96031.47;;;14.30;76.92
7774;BME280;3931;42.260;23.116;2023-02-20T04:00:51;96033.88;;;14.87;72.49
7774;BME280;3931;42.260;23.116;2023-02-20T04:03:22;96038.97;;;15.01;71.99
7774;BME280;3931;42.260;23.116;2023-02-20T04:05:51;96038.56;;;14.90;72.59
7774;BME280;3931;42.260;23.116;2023-02-20T04:08:20;96043.13;;;14.84;72.90
7774;BME280;3931;42.260;23.116;2023-02-20T04:10:52;96050.13;;;15.23;70.63
7774;BME280;3931;42.260;23.116;2023-02-20T04:13:22;96066.13;;;14.76;72.70
7774;BME280;3931;42.260;23.116;2023-02-20T04:15:49;96060.13;;;14.77;73.17
7774;BME280;3931;42.260;23.116;2023-02-20T04:18:17;96066.00;;;14.32;74.30
7774;BME280;3931;42.260;23.116;2023-02-20T04:20:45;96063.88;;;14.83;73.19
7774;BME280;3931;42.260;23.116;2023-02-20T04:23:15;96058.41;;;15.14;70.36
7774;BME280;3931;42.260;23.116;2023-02-20T04:25:44;96061.78;;;15.09;71.14
7774;BME280;3931;42.260;23.116;2023-02-20T04:28:13;96061.66;;;15.34;68.70
7774;BME280;3931;42.260;23.116;2023-02-20T04:30:41;96068.50;;;14.99;68.68
7774;BME280;3931;42.260;23.116;2023-02-20T04:33:09;96055.94;;;15.16;69.56
7774;BME280;3931;42.260;23.116;2023-02-20T04:35:35;96053.94;;;15.16;68.49
7774;BME280;3931;42.260;23.116;2023-02-20T04:38:01;96054.91;;;15.01;69.42
7774;BME280;3931;42.260;23.116;2023-02-20T04:40:27;96056.09;;;15.12;68.14
7774;BME280;3931;42.260;23.116;2023-02-20T04:42:53;96059.06;;;14.49;71.11
7774;BME280;3931;42.260;23.116;2023-02-20T04:45:20;96059.84;;;14.50;73.32
7774;BME280;3931;42.260;23.116;2023-02-20T04:47:46;96055.28;;;14.90;70.11
7774;BME280;3931;42.260;23.116;2023-02-20T04:50:16;96063.97;;;14.45;72.20
7774;BME280;3931;42.260;23.116;2023-02-20T04:52:43;96064.22;;;14.85;70.34
7774;BME280;3931;42.260;23.116;2023-02-20T04:55:09;96062.31;;;14.35;72.55
7774;BME280;3931;42.260;23.116;2023-02-20T04:57:35;96070.16;;;14.75;70.32
7774;BME280;3931;42.260;23.116;2023-02-20T05:00:03;96077.44;;;14.47;71.82
7774;BME280;3931;42.260;23.116;2023-02-20T05:02:30;96084.91;;;14.50;72.01
7774;BME280;3931;42.260;23.116;2023-02-20T05:04:56;96089.47;;;14.31;73.79
7774;BME280;3931;42.260;23.116;2023-02-20T05:07:22;96102.28;;;14.41;74.11
7774;BME280;3931;42.260;23.116;2023-02-20T05:09:48;96104.97;;;14.32;74.85
7774;BME280;3931;42.260;23.116;2023-02-20T05:12:14;96091.25;;;14.13;74.29
7774;BME280;3931;42.260;23.116;2023-02-20T05:14:41;96105.94;;;14.64;71.77
7774;BME280;3931;42.260;23.116;2023-02-20T05:17:07;96109.16;;;13.99;75.32
7774;BME280;3931;42.260;23.116;2023-02-20T05:19:33;96105.59;;;14.11;74.69
7774;BME280;3931;42.260;23.116;2023-02-20T05:21:59;96117.34;;;13.77;74.17
7774;BME280;3931;42.260;23.116;2023-02-20T05:24:44;96129.38;;;13.87;74.34
7774;BME280;3931;42.260;23.116;2023-02-20T05:27:10;96139.09;;;13.54;75.04
7774;BME280;3931;42.260;23.116;2023-02-20T05:29:36;96149.31;;;13.85;70.64
7774;BME280;3931;42.260;23.116;2023-02-20T05:32:02;96157.06;;;13.78;67.66
7774;BME280;3931;42.260;23.116;2023-02-20T05:34:28;96159.91;;;14.91;60.69
7774;BME280;3931;42.260;23.116;2023-02-20T05:36:55;96172.13;;;14.59;61.53
7774;BME280;3931;42.260;23.116;2023-02-20T05:39:21;96170.72;;;14.89;61.53
7774;BME280;3931;42.260;23.116;2023-02-20T05:41:47;96176.13;;;15.18;60.11
7774;BME280;3931;42.260;23.116;2023-02-20T05:44:14;96180.72;;;15.12;62.60
7774;BME280;3931;42.260;23.116;2023-02-20T05:46:40;96191.66;;;15.06;63.22
7774;BME280;3931;42.260;23.116;2023-02-20T05:49:07;96183.53;;;14.87;64.55
7774;BME280;3931;42.260;23.116;2023-02-20T05:51:33;96195.34;;;15.03;63.98
7774;BME280;3931;42.260;23.116;2023-02-20T05:54:00;96185.75;;;15.04;63.64
7774;BME280;3931;42.260;23.116;2023-02-20T05:56:26;96182.91;;;15.29;61.80
7774;BME280;3931;42.260;23.116;2023-02-20T05:58:54;96184.44;;;15.77;59.83
7774;BME280;3931;42.260;23.116;2023-02-20T06:01:23;96187.88;;;15.60;59.70
7774;BME280;3931;42.260;23.116;2023-02-20T06:03:50;96190.47;;;14.95;62.95
7774;BME280;3931;42.260;23.116;2023-02-20T06:06:17;96198.50;;;14.93;60.76
7774;BME280;3931;42.260;23.116;2023-02-20T06:08:43;96207.41;;;15.47;59.74
7774;BME280;3931;42.260;23.116;2023-02-20T06:11:12;96201.72;;;15.38;61.74
7774;BME280;3931;42.260;23.116;2023-02-20T06:13:39;96222.84;;;15.73;59.61
7774;BME280;3931;42.260;23.116;2023-02-20T06:16:06;96228.94;;;16.02;57.94
7774;BME280;3931;42.260;23.116;2023-02-20T06:18:32;96235.88;;;15.76;57.05
7774;BME280;3931;42.260;23.116;2023-02-20T06:20:58;96236.69;;;16.20;54.81
7774;BME280;3931;42.260;23.116;2023-02-20T06:23:24;96232.50;;;15.60;56.71
7774;BME280;3931;42.260;23.116;2023-02-20T06:25:50;96236.09;;;15.82;58.08
7774;BME280;3931;42.260;23.116;2023-02-20T06:28:17;96240.78;;;16.07;56.65
7774;BME280;3931;42.260;23.116;2023-02-20T06:30:43;96239.06;;;15.87;57.84
7774;BME280;3931;42.260;23.116;2023-02-20T06:33:09;96242.78;;;16.06;57.11
7774;BME280;3931;42.260;23.116;2023-02-20T06:35:35;96229.97;;;15.74;58.32
7774;BME280;3931;42.260;23.116;2023-02-20T06:38:01;96242.84;;;16.37;56.76
7774;BME280;3931;42.260;23.116;2023-02-20T06:40:27;96231.56;;;16.71;54.66
7774;BME280;3931;42.260;23.116;2023-02-20T06:42:53;96222.34;;;16.92;54.11
7774;BME280;3931;42.260;23.116;2023-02-20T06:45:20;96232.81;;;17.10;53.33
7774;BME280;3931;42.260;23.116;2023-02-20T06:47:46;96241.03;;;17.04;54.31
7774;BME280;3931;42.260;23.116;2023-02-20T06:50:12;96239.28;;;16.58;55.19
7774;BME280;3931;42.260;23.116;2023-02-20T06:52:38;96231.94;;;16.51;55.70
7774;BME280;3931;42.260;23.116;2023-02-20T06:55:04;96231.25;;;16.69;54.50
7774;BME280;3931;42.260;23.116;2023-02-20T06:57:31;96248.03;;;16.69;54.67
7774;BME280;3931;42.260;23.116;2023-02-20T06:59:57;96243.22;;;17.09;54.00
7774;BME280;3931;42.260;23.116;2023-02-20T07:02:24;96244.66;;;17.90;51.79
7774;BME280;3931;42.260;23.116;2023-02-20T07:04:50;96246.78;;;18.31;49.99
7774;BME280;3931;42.260;23.116;2023-02-20T07:07:16;96244.28;;;18.33;49.00
7774;BME280;3931;42.260;23.116;2023-02-20T07:09:42;96245.56;;;18.32;48.91
7774;BME280;3931;42.260;23.116;2023-02-20T07:12:08;96247.09;;;18.60;48.35
7774;BME280;3931;42.260;23.116;2023-02-20T07:14:34;96249.59;;;19.00;47.92
7774;BME280;3931;42.260;23.116;2023-02-20T07:17:00;96245.97;;;20.12;44.97
7774;BME280;3931;42.260;23.116;2023-02-20T07:19:27;96255.94;;;19.75;44.57
7774;BME280;3931;42.260;23.116;2023-02-20T07:21:53;96250.84;;;19.64;44.43
7774;BME280;3931;42.260;23.116;2023-02-20T07:24:19;96248.22;;;18.45;43.91
7774;BME280;3931;42.260;23.116;2023-02-20T07:26:46;96241.19;;;18.31;43.20
7774;BME280;3931;42.260;23.116;2023-02-20T07:29:12;96250.56;;;19.30;41.92
7774;BME280;3931;42.260;23.116;2023-02-20T07:31:39;96244.69;;;19.19;40.93
7774;BME280;3931;42.260;23.116;2023-02-20T07:34:05;96250.84;;;19.41;40.93
7774;BME280;3931;42.260;23.116;2023-02-20T07:36:32;96251.03;;;18.86;41.05
7774;BME280;3931;42.260;23.116;2023-02-20T07:38:59;96250.72;;;19.26;41.22
7774;BME280;3931;42.260;23.116;2023-02-20T07:41:27;96248.63;;;19.92;39.84
7774;BME280;3931;42.260;23.116;2023-02-20T07:43:54;96240.63;;;20.67;38.59
7774;BME280;3931;42.260;23.116;2023-02-20T07:46:20;96231.81;;;21.38;38.30
7774;BME280;3931;42.260;23.116;2023-02-20T07:48:46;96221.63;;;21.41;37.75
7774;BME280;3931;42.260;23.116;2023-02-20T07:51:13;96235.81;;;20.53;38.30
7774;BME280;3931;42.260;23.116;2023-02-20T07:53:40;96229.34;;;21.60;38.59
7774;BME280;3931;42.260;23.116;2023-02-20T07:56:06;96225.19;;;21.96;37.30
7774;BME280;3931;42.260;23.116;2023-02-20T07:58:32;96236.09;;;21.68;36.89
7774;BME280;3931;42.260;23.116;2023-02-20T08:00:58;96233.06;;;21.17;37.25
7774;BME280;3931;42.260;23.116;2023-02-20T08:03:24;96235.84;;;22.27;35.74
7774;BME280;3931;42.260;23.116;2023-02-20T08:05:50;96230.72;;;23.08;34.85
7774;BME280;3931;42.260;23.116;2023-02-20T08:08:16;96236.16;;;22.34;34.88
7774;BME280;3931;42.260;23.116;2023-02-20T08:10:43;96229.91;;;21.64;35.79
7774;BME280;3931;42.260;23.116;2023-02-20T08:13:09;96232.56;;;21.53;36.19
7774;BME280;3931;42.260;23.116;2023-02-20T08:15:35;96231.19;;;21.29;36.45
7774;BME280;3931;42.260;23.116;2023-02-20T08:18:01;96231.81;;;21.73;36.20
7774;BME280;3931;42.260;23.116;2023-02-20T08:20:27;96238.28;;;21.10;36.18
7774;BME280;3931;42.260;23.116;2023-02-20T08:22:53;96240.13;;;21.47;35.93
7774;BME280;3931;42.260;23.116;2023-02-20T08:25:19;96234.63;;;21.73;35.13
7774;BME280;3931;42.260;23.116;2023-02-20T08:27:48;96234.97;;;20.23;36.69
7774;BME280;3931;42.260;23.116;2023-02-20T08:30:17;96229.97;;;20.04;37.30
7774;BME280;3931;42.260;23.116;2023-02-20T08:32:43;96224.91;;;20.31;37.10
7774;BME280;3931;42.260;23.116;2023-02-20T08:35:09;96225.81;;;20.38;37.11
7774;BME280;3931;42.260;23.116;2023-02-20T08:37:35;96228.00;;;21.56;36.17
7774;BME280;3931;42.260;23.116;2023-02-20T08:40:01;96229.91;;;21.64;35.40
7774;BME280;3931;42.260;23.116;2023-02-20T08:42:31;96232.38;;;21.08;35.44
7774;BME280;3931;42.260;23.116;2023-02-20T08:44:58;96222.94;;;19.37;37.63
7774;BME280;3931;42.260;23.116;2023-02-20T08:47:24;96222.84;;;19.79;38.15
7774;BME280;3931;42.260;23.116;2023-02-20T08:49:50;96221.56;;;19.00;38.22
7774;BME280;3931;42.260;23.116;2023-02-20T08:52:17;96225.28;;;19.62;38.05
7774;BME280;3931;42.260;23.116;2023-02-20T08:54:44;96223.97;;;19.73;37.77
7774;BME280;3931;42.260;23.116;2023-02-20T08:57:10;96228.50;;;19.46;38.28
7774;BME280;3931;42.260;23.116;2023-02-20T08:59:36;96219.63;;;19.48;38.17
7774;BME280;3931;42.260;23.116;2023-02-20T09:02:05;96222.13;;;19.70;37.47
7774;BME280;3931;42.260;23.116;2023-02-20T09:04:31;96219.19;;;20.02;37.70
7774;BME280;3931;42.260;23.116;2023-02-20T09:06:57;96217.16;;;20.56;36.76
7774;BME280;3931;42.260;23.116;2023-02-20T09:09:23;96221.03;;;20.58;36.28
7774;BME280;3931;42.260;23.116;2023-02-20T09:11:49;96213.53;;;20.99;36.47
7774;BME280;3931;42.260;23.116;2023-02-20T09:14:15;96201.16;;;20.91;35.96
7774;BME280;3931;42.260;23.116;2023-02-20T09:16:41;96221.78;;;21.02;35.32
7774;BME280;3931;42.260;23.116;2023-02-20T09:19:08;96224.03;;;21.48;34.77
7774;BME280;3931;42.260;23.116;2023-02-20T09:21:34;96222.31;;;20.86;35.32
7774;BME280;3931;42.260;23.116;2023-02-20T09:24:00;96214.75;;;21.42;34.93
7774;BME280;3931;42.260;23.116;2023-02-20T09:26:26;96217.19;;;21.34;34.85
7774;BME280;3931;42.260;23.116;2023-02-20T09:28:52;96207.19;;;22.34;33.65
7774;BME280;3931;42.260;23.116;2023-02-20T09:31:18;96216.75;;;21.96;33.40
7774;BME280;3931;42.260;23.116;2023-02-20T09:33:45;96220.31;;;21.22;33.71
7774;BME280;3931;42.260;23.116;2023-02-20T09:36:15;96206.94;;;21.17;33.46
7774;BME280;3931;42.260;23.116;2023-02-20T09:38:41;96224.66;;;20.44;34.37
7774;BME280;3931;42.260;23.116;2023-02-20T09:41:21;96208.84;;;21.60;32.97
7774;BME280;3931;42.260;23.116;2023-02-20T09:43:58;96218.66;;;21.30;33.68
7774;BME280;3931;42.260;23.116;2023-02-20T09:46:28;96210.75;;;21.34;33.13
7774;BME280;3931;42.260;23.116;2023-02-20T09:49:01;96218.84;;;21.81;33.12
7774;BME280;3931;42.260;23.116;2023-02-20T09:51:31;96234.19;;;21.25;34.01
7774;BME280;3931;42.260;23.116;2023-02-20T09:54:02;96225.69;;;20.76;34.41
7774;BME280;3931;42.260;23.116;2023-02-20T09:56:33;96232.47;;;22.03;33.53
7774;BME280;3931;42.260;23.116;2023-02-20T09:59:05;96232.81;;;21.90;32.68
7774;BME280;3931;42.260;23.116;2023-02-20T10:01:34;96229.56;;;21.77;33.07
7774;BME280;3931;42.260;23.116;2023-02-20T10:04:05;96238.97;;;20.31;33.99
7774;BME280;3931;42.260;23.116;2023-02-20T10:06:33;96212.91;;;20.60;34.24
7774;BME280;3931;42.260;23.116;2023-02-20T10:09:00;96212.69;;;20.93;34.27
7774;BME280;3931;42.260;23.116;2023-02-20T10:11:51;96200.97;;;21.29;33.52
7774;BME280;3931;42.260;23.116;2023-02-20T10:14:37;96222.78;;;20.03;34.56
7774;BME280;3931;42.260;23.116;2023-02-20T10:17:14;96212.06;;;19.30;35.21
7774;BME280;3931;42.260;23.116;2023-02-20T10:19:49;96222.28;;;20.43;35.33
7774;BME280;3931;42.260;23.116;2023-02-20T10:22:21;96215.50;;;19.96;34.34
7774;BME280;3931;42.260;23.116;2023-02-20T10:24:58;96217.66;;;20.40;33.18
7774;BME280;3931;42.260;23.116;2023-02-20T10:27:30;96224.03;;;19.63;34.18
7774;BME280;3931;42.260;23.116;2023-02-20T10:29:59;96219.50;;;20.04;34.58
7774;BME280;3931;42.260;23.116;2023-02-20T10:32:29;96196.88;;;21.10;33.82
7774;BME280;3931;42.260;23.116;2023-02-20T10:35:01;96203.47;;;22.48;32.53
7774;BME280;3931;42.260;23.116;2023-02-20T10:37:35;96198.94;;;21.85;32.23
7774;BME280;3931;42.260;23.116;2023-02-20T10:40:11;96187.56;;;21.39;33.53
7774;BME280;3931;42.260;23.116;2023-02-20T10:42:41;96199.09;;;20.91;33.81
7774;BME280;3931;42.260;23.116;2023-02-20T10:45:15;96203.09;;;19.88;34.35
7774;BME280;3931;42.260;23.116;2023-02-20T10:47:46;96194.47;;;20.45;33.35
7774;BME280;3931;42.260;23.116;2023-02-20T10:50:19;96186.84;;;20.07;34.45
7774;BME280;3931;42.260;23.116;2023-02-20T10:52:53;96189.00;;;19.97;34.25
7774;BME280;3931;42.260;23.116;2023-02-20T10:55:27;96193.25;;;19.93;33.85
7774;BME280;3931;42.260;23.116;2023-02-20T10:58:00;96198.16;;;21.09;33.36
7774;BME280;3931;42.260;23.116;2023-02-20T11:00:32;96198.75;;;20.55;32.89
7774;BME280;3931;42.260;23.116;2023-02-20T11:03:04;96200.81;;;19.63;34.10
7774;BME280;3931;42.260;23.116;2023-02-20T11:05:37;96205.13;;;21.89;33.41
7774;BME280;3931;42.260;23.116;2023-02-20T11:08:05;96181.03;;;21.13;32.36
7774;BME280;3931;42.260;23.116;2023-02-20T11:10:31;96189.03;;;21.34;32.44
7774;BME280;3931;42.260;23.116;2023-02-20T11:13:00;96184.47;;;19.76;33.11
7774;BME280;3931;42.260;23.116;2023-02-20T11:15:28;96174.81;;;20.30;33.14
7774;BME280;3931;42.260;23.116;2023-02-20T11:17:57;96174.22;;;20.41;32.46
7774;BME280;3931;42.260;23.116;2023-02-20T11:20:41;96170.53;;;20.49;32.84
7774;BME280;3931;42.260;23.116;2023-02-20T11:23:08;96181.22;;;20.60;32.72
7774;BME280;3931;42.260;23.116;2023-02-20T11:25:35;96176.59;;;20.04;32.85
7774;BME280;3931;42.260;23.116;2023-02-20T11:28:08;96167.72;;;20.49;33.84
7774;BME280;3931;42.260;23.116;2023-02-20T11:30:38;96179.25;;;18.80;34.33
7774;BME280;3931;42.260;23.116;2023-02-20T11:33:05;96169.63;;;19.37;34.29
7774;BME280;3931;42.260;23.116;2023-02-20T11:35:37;96173.81;;;19.09;34.13
7774;BME280;3931;42.260;23.116;2023-02-20T11:38:23;96172.28;;;19.32;33.91
7774;BME280;3931;42.260;23.116;2023-02-20T11:41:07;96161.06;;;19.32;33.77
7774;BME280;3931;42.260;23.116;2023-02-20T11:43:38;96157.09;;;19.47;33.98
7774;BME280;3931;42.260;23.116;2023-02-20T11:46:09;96161.81;;;19.09;34.16
7774;BME280;3931;42.260;23.116;2023-02-20T11:48:37;96153.91;;;18.74;35.23
7774;BME280;3931;42.260;23.116;2023-02-20T11:51:04;96155.91;;;19.07;34.25
7774;BME280;3931;42.260;23.116;2023-02-20T11:53:32;96158.63;;;20.25;33.42
7774;BME280;3931;42.260;23.116;2023-02-20T11:56:10;96135.47;;;20.30;33.18
7774;BME280;3931;42.260;23.116;2023-02-20T11:58:38;96130.47;;;21.58;32.79
7774;BME280;3931;42.260;23.116;2023-02-20T12:01:05;96131.53;;;22.58;32.16
7774;BME280;3931;42.260;23.116;2023-02-20T12:03:32;96143.50;;;21.01;32.07
7774;BME280;3931;42.260;23.116;2023-02-20T12:06:00;96138.09;;;19.81;33.04
7774;BME280;3931;42.260;23.116;2023-02-20T12:08:34;96130.56;;;19.25;34.03
7774;BME280;3931;42.260;23.116;2023-02-20T12:11:04;96128.75;;;19.60;34.65
7774;BME280;3931;42.260;23.116;2023-02-20T12:13:36;96144.00;;;19.44;34.13
7774;BME280;3931;42.260;23.116;2023-02-20T12:16:17;96148.72;;;20.29;33.67
7774;BME280;3931;42.260;23.116;2023-02-20T12:18:52;96157.00;;;20.33;32.92
7774;BME280;3931;42.260;23.116;2023-02-20T12:21:36;96152.44;;;20.85;32.70
7774;BME280;3931;42.260;23.116;2023-02-20T12:24:15;96154.34;;;20.15;33.85
7774;BME280;3931;42.260;23.116;2023-02-20T12:26:49;96140.63;;;19.79;33.02
7774;BME280;3931;42.260;23.116;2023-02-20T12:29:37;96143.56;;;19.60;32.92
7774;BME280;3931;42.260;23.116;2023-02-20T12:32:20;96149.31;;;19.66;32.74
7774;BME280;3931;42.260;23.116;2023-02-20T12:35:01;96150.22;;;19.48;33.96
7774;BME280;3931;42.260;23.116;2023-02-20T12:37:36;96143.69;;;19.66;33.50
7774;BME280;3931;42.260;23.116;2023-02-20T12:40:24;96147.09;;;19.85;33.79
7774;BME280;3931;42.260;23.116;2023-02-20T12:42:58;96141.25;;;19.59;33.02
7774;BME280;3931;42.260;23.116;2023-02-20T12:45:33;96130.47;;;19.81;33.54
7774;BME280;3931;42.260;23.116;2023-02-20T12:48:16;96125.88;;;20.37;33.11
7774;BME280;3931;42.260;23.116;2023-02-20T12:50:55;96119.03;;;19.70;32.41
7774;BME280;3931;42.260;23.116;2023-02-20T12:53:42;96131.56;;;19.60;32.81
7774;BME280;3931;42.260;23.116;2023-02-20T12:56:23;96132.03;;;18.87;33.85
7774;BME280;3931;42.260;23.116;2023-02-20T12:58:58;96134.31;;;19.22;33.71
7774;BME280;3931;42.260;23.116;2023-02-20T13:01:26;96136.66;;;19.71;33.49
7774;BME280;3931;42.260;23.116;2023-02-20T13:03:59;96144.69;;;20.30;33.39
7774;BME280;3931;42.260;23.116;2023-02-20T13:06:32;96127.97;;;20.12;33.15
7774;BME280;3931;42.260;23.116;2023-02-20T13:09:08;96122.63;;;21.08;32.19
7774;BME280;3931;42.260;23.116;2023-02-20T13:11:42;96144.47;;;20.34;32.10
7774;BME280;3931;42.260;23.116;2023-02-20T13:14:24;96139.09;;;20.65;32.50
7774;BME280;3931;42.260;23.116;2023-02-20T13:16:59;96131.09;;;21.88;31.12
7774;BME280;3931;42.260;23.116;2023-02-20T13:19:32;96148.44;;;22.27;30.62
7774;BME280;3931;42.260;23.116;2023-02-20T13:22:00;96123.44;;;21.89;30.88
7774;BME280;3931;42.260;23.116;2023-02-20T13:24:33;96135.09;;;21.82;31.65
7774;BME280;3931;42.260;23.116;2023-02-20T13:27:02;96129.38;;;22.47;30.88
7774;BME280;3931;42.260;23.116;2023-02-20T13:29:32;96137.19;;;20.27;31.30
7774;BME280;3931;42.260;23.116;2023-02-20T13:31:59;96139.97;;;19.84;33.14